Pagina principală
METAR-TAF:

METAR-TAF

Aeroporturi :

Gibraltar, Gibraltar

Latitudine: 36-09N, longitudine: 005-21W, elevație: 5 m

Observații meteo curente

Raportul a fost făcut în urmă cu 24 de minute, la 12:50 UTC
Vânt 10 kt de la Est/Nord-est
Temperatură 20°C
Umiditate 64%
Presiune 1024 hPa
Vizibilitate de 10 km sau mai mult
nu există nori sub 1.500 m și nici cumulonimbus

METAR: LXGB 141250Z 07010KT CAVOK 20/13 Q1024 NOSIG

Ora: 15:14 (13:14 UTC)

Prognoză

Raportul a fost făcut în urmă cu 2 ore și 32 de minute, la 10:42 UTC
Prognoză valabilă de la 14 ora 12 UTC la 14 ora 21 UTC
Vânt 12 kt de la Est
Vizibilitate de 10 km sau mai mult
nu există nori sub 1.500 m și nici cumulonimbus

TAF: LXGB 141042Z 1412/1421 08012KT CAVOK

Observații și prognoze meteo pentru peste 4.000 de aeroporturi (rapoarte METAR și TAF).

Stațiile disponibile sunt reprezentate pe hartă prin puncte galbene și roșii.

Țineți indicatorul mouse-ului pe punctul dorit pentru a vedea denumirea stației.

Apoi, faceți clic pentru a vedea observațiile și prognozele meteorologice.

Pentru a schimba harta: Pentru mărire, faceți clic pe butoanele verzi cu cruce neagră; pentru micșorare, pe butonul verde cu o liniuță; pentru hărți învecinate, pe săgețile verzi.


METAR-TAF: